Logo AVAMET
Benvolgut visitant, si us plau, ingressa Recuperar contrasenya
AVAMET paisatges

Inforatge Dénia Madrigueres

Dades diàries. Acumulats / Últims 30 dies disponibles

Data Temperatura (°C) Humitat rel. (%) Pressió rel. (hPa) Vent (km/h) Precipitació
Mínima Mitjana Màxima Amplitud
tèrmica
Mínima Mitjana Màxima Mínima Mitjana Màxima Predom. Mitjana Ràfega
màxima
Total
(mm)
Índex-n
Mínima Mitjana Màxima Mínima Mitjana Màxima n
0 a 1
P0 max
mm 5'
Dades mensuals acumulades fins l'últim dia disponible
10/2020 10,1 15,1 18,2 20,0 19,1 24,4 30,3 20,2 27 60 94 992 1.016 1.025   5,1 54,7 4,2
Dades anuals acumulades fins l'últim dia disponible
2020 2,5 16,2 26,0 20,4 11,8 24,7 41,4 38,9 0 70 98 992 1.018 1.035   5,3 75,6 458,0
Últims 30 dies disponibles
21-10-2020 17,3     21,2     26,6 9,3 47 78 93 1.009 1.011 1.014 S 3,4 33,8 0,0
20-10-2020 13,8     18,6     22,8 9,0 74 84 92 1.010 1.016 1.019 WNW 2,3 30,6 0,0
19-10-2020 12,9     18,6     23,1 10,2 60 77 91 1.019 1.021 1.023 SE 5,0 29,0 0,0
18-10-2020 13,8     18,1     21,3 7,5 58 72 81 1.019 1.021 1.023 SW 3,4 22,5 0,0
17-10-2020 10,1     17,1     22,6 12,5 42 58 79 1.016 1.017 1.019 S 4,0 24,1 0,0
16-10-2020 11,7     16,6     19,1 7,4 40 52 66 1.016 1.018 1.019 WNW 6,4 29,0 0,0
15-10-2020 13,7     17,3     20,9 7,2 31 46 76 1.014 1.015 1.017 WNW 4,7 29,0 0,0
14-10-2020 15,6     18,6     23,6 8,0 39 70 86 1.009 1.010 1.014 E 3,7 37,0 0,0
13-10-2020 14,2     20,9     27,0 12,8 35 44 57 1.011 1.015 1.019 SW 4,8 29,0 0,0
12-10-2020 13,9     18,0     21,2 7,3 36 45 57 1.019 1.021 1.023 WNW 8,0 35,4 0,0
11-10-2020 15,4     19,3     21,1 5,7 38 58 91 1.020 1.022 1.023 NE 6,9 30,6 0,2
10-10-2020 17,8     21,6     24,8 7,0 62 77 91 1.020 1.022 1.023 E 2,6 22,5 0,0
09-10-2020 17,2     22,2     26,7 9,5 59 76 92 1.020 1.022 1.023 SSE 4,5 25,7 0,0
08-10-2020 18,2     21,9     25,8 7,6 60 73 79 1.022 1.023 1.025 E 6,0 33,8 0,0
07-10-2020 18,2     23,8     28,3 10,1 36 53 71 1.019 1.021 1.023 E 3,1 24,1 0,0
06-10-2020 13,8     22,1     28,3 14,5 32 46 67 1.018 1.020 1.022 S 3,4 29,0 0,0
05-10-2020 18,1     20,3     22,7 4,6 39 47 57 1.012 1.016 1.021 WNW 6,0 24,1 0,0
04-10-2020 15,8     20,4     25,6 9,8 30 44 51 1.007 1.010 1.012 WNW 7,2 40,2 0,0
03-10-2020 14,7     18,7     23,8 9,1 27 41 52 1.002 1.006 1.011 WNW 9,5 38,6 0,0
02-10-2020 13,2     21,8     26,5 13,3 39 51 83 992 999 1.006 WNW 10,0 54,7 4,0 0,10 0,60
01-10-2020 17,3     23,9     30,3 13,0 31 62 94 1.005 1.009 1.013 SW 2,9 22,5 0,0
30-09-2020 15,8     20,9     27,0 11,2 58 77 89 1.013 1.015 1.018 SSO 3,0 27,4 0,0
29-09-2020 15,6     20,2     24,0 8,4 58 75 88 1.017 1.018 1.020 E 3,5 25,7 0,0
28-09-2020 15,3     20,3     24,7 9,4 37 54 75 1.014 1.016 1.018 W 4,2 29,0 0,0
27-09-2020 18,4     21,9     23,7 5,3 36 45 59 1.009 1.012 1.015 WNW 11,1 43,5 0,0
26-09-2020 16,6     21,0     25,5 8,9 29 38 45 1.011 1.016 1.020 WNW 8,9 32,2 0,0
25-09-2020 20,4     23,8     27,8 7,4 30 44 56 1.013 1.016 1.020 WNW 10,5 45,1 0,0
24-09-2020 23,3     26,9     30,1 6,8 0 52 70 1.012 1.013 1.015 WNW 4,8 33,8 0,0
23-09-2020 20,9     25,9     30,5 9,6 42 64 91 1.010 1.012 1.014 E 4,0 29,0 0,0
22-09-2020 20,2     24,9     28,7 8,5 0 65 85 1.011 1.014 1.016 SW 5,0 33,8 0,0
Últims 13 mesos disponibles
09/2020 15,3 19,5 23,3 23,9 23,7 27,8 32,7 17,4 38 66 79 1.012 1.017 1.024 E 5,0 46,7 10,0
08/2020 18,1 23,5 26,0 28,0 25,2 32,7 41,4 23,3 46 67 85 1.004 1.014 1.019 WNW 6,1 48,3 95,0
07/2020 20,0 23,2 25,2 26,9 28,2 30,9 38,4 18,4 51 70 83 1.011 1.016 1.020 E 6,1 45,1 0,8
06/2020 16,1 19,6 22,8 24,0 21,2 28,6 33,4 17,3 41 68 85 1.005 1.014 1.021 E 6,1 49,9 20,2
05/2020 13,6 17,0 20,9 21,6 20,3 26,4 32,5 18,9 45 67 86 1.006 1.017 1.027 E 5,2 40,2 17,8
04/2020 9,3 13,1 19,9 16,2 15,4 19,8 27,7 18,4 45 77 96 1.006 1.016 1.026 E 5,2 43,5 69,6
03/2020 7,3 11,6 17,9 15,0 11,8 18,7 25,9 18,6 41 71 94 1.007 1.017 1.026 WNW 6,9 66,0 100,6
02/2020 6,7 10,7 15,2 15,5 15,1 21,1 26,6 19,9 41 70 86 1.014 1.025 1.033 E 2,9 40,2 1,0
01/2020 2,5 8,1 15,8 12,1 13,3 16,3 22,7 20,2 57 77 96 1.015 1.025 1.032 WNW 4,0 75,6 138,8
12/2019 6,4 11,2 19,7 14,5 13,8 18,4 25,5 19,1 50 72 91 1.004 1.016 1.033 WNW 5,0 66,0 129,6
11/2019 6,6 13,0 21,9 16,5 15,3 20,1 27,7 21,1 42 56 79 999 1.011 1.018 WNW 8,1 54,7 10,6
10/2019 11,6 16,7 21,4 20,9 16,9 25,1 34,1 22,5 45 70 87 1.008 1.016 1.022 SSO 3,6 41,8 81,6
09/2019 14,5 20,6 24,6 24,5 24,0 28,3 35,2 20,7 50 75 92 1.010 1.017 1.023 SSO 5,7 70,9 181,4
Tots els anys disponibles
2019 1,9 15,0 27,1 19,2 12,1 23,5 39,8 37,9 28 67 96 996 1.017 1.033 S 5,7 70,9 785,6
2018 2,9 15,2 27,2 19,1 8,3 23,2 37,9 35,0 34 67 94 993 1.016 1.034 S 5,5 66,7 612,4
2017 3,3 15,8 27,2 20,0 12,4 24,3 37,1 33,8 30 69 94 998 1.018 1.035 S 3,2 61,1 453,0
Temperatura (°C)
Humitat relativa (%)
Velocitat del vent i ràfega màxima (km/h)
Direcció del vent (°)
Pressió (hPa)
Precipitació (mm)
Nota sobre les dades: s'avisa a l'usuari de la provisionalitat i no oficialitat d'aquestes dades
Logo AVAMET blanc
Web allotjada a Sollutia
Llicència de Creative CommonsLa web d'AVAMET i els seus continguts estan subjectes a una llicència de
Reconeixement - No Comercial - Compartir igual
Últimes estacions: Sueca - Mareny de Barraquetes (Inforatge), La Vilavella - Centre (Ajuntament Soci), Alfondeguilla (Soci), Santa Magdalena de Polpís (Soci),  Benafigos (Aj. Soci), Carlet - Ajuntament (Inforatge), Montroi (Inforatge), Bronchales (Limítrofe-Terol/Aj. Soci), Sueca - Muntanyeta dels Sants (Inforatge), Vilamarxant - Ajuntament (Aj. Soci/Inforatge) - - -